createdAt,value
2023-03-23T15:58:47.013Z,99080.03
2023-03-23T15:59:51.704Z,99082.50
2023-03-23T16:00:55.982Z,99094.50
2023-03-23T16:01:59.860Z,99088.50
2023-03-23T16:03:06.442Z,99083.38
2023-03-23T16:04:13.643Z,99085.94
2023-03-23T16:05:16.504Z,99090.03
2023-03-23T16:06:24.111Z,99082.50
2023-03-23T16:07:29.357Z,99079.94
2023-03-23T16:08:32.315Z,99083.38
2023-03-23T16:09:35.954Z,99086.88
2023-03-23T16:10:39.163Z,99082.66
2023-03-23T16:11:43.072Z,99094.56
2023-03-23T16:12:45.852Z,99088.72
2023-03-23T16:13:49.399Z,99093.84
2023-03-23T16:14:53.715Z,99089.59
2023-03-23T16:15:57.183Z,99083.69
2023-03-23T16:16:59.619Z,99082.81
2023-03-23T16:18:03.471Z,99099.34
2023-03-23T16:19:07.051Z,99084.09
2023-03-23T16:20:17.358Z,99084.25
2023-03-23T16:21:20.119Z,99085.25
2023-03-23T16:22:24.079Z,99089.63
2023-03-23T16:23:27.330Z,99077.81
2023-03-23T16:24:30.945Z,99085.66
2023-03-23T16:25:33.312Z,99085.81
2023-03-23T16:26:37.211Z,99087.63
2023-03-23T16:27:40.152Z,99083.53
2023-03-23T16:28:44.406Z,99085.31
2023-03-23T16:30:02.826Z,99093.94
2023-03-23T16:31:10.009Z,99088.06
2023-03-23T16:32:13.109Z,99085.56
2023-03-23T16:33:16.885Z,99084.78
2023-03-23T16:34:19.645Z,99080.59
2023-03-23T16:35:23.490Z,99078.84
2023-03-23T16:36:27.001Z,99081.41
2023-03-23T16:37:33.594Z,99079.69
2023-03-23T16:38:49.813Z,99075.41
2023-03-23T16:39:54.731Z,99074.56
2023-03-23T16:40:56.975Z,99080.72
2023-03-23T16:42:00.672Z,99079.06
2023-03-23T16:43:08.929Z,99074.66
2023-03-23T16:44:13.807Z,99083.50
2023-03-23T16:45:17.271Z,99081.91
2023-03-23T16:46:22.474Z,99082.84
2023-03-23T16:47:25.726Z,99077.72
2023-03-23T16:48:29.832Z,99093.09
2023-03-23T16:49:32.397Z,99081.16
2023-03-23T16:50:36.984Z,99080.22
2023-03-23T16:51:40.539Z,99080.28
2023-03-23T16:52:47.885Z,99079.41
2023-03-23T16:53:51.377Z,99083.66
2023-03-23T16:54:53.892Z,99078.47
2023-03-23T16:55:58.117Z,99077.66
2023-03-23T16:57:00.583Z,99075.00
2023-03-23T16:58:16.492Z,99078.38
2023-03-23T16:59:20.960Z,99074.88
2023-03-23T17:00:23.777Z,99075.69
2023-03-23T17:01:28.695Z,99068.66
2023-03-23T17:02:31.331Z,99070.44
2023-03-23T17:03:36.149Z,99078.03
2023-03-23T17:04:43.594Z,99067.63
2023-03-23T17:05:49.235Z,99071.81
2023-03-23T17:06:51.987Z,99068.44
2023-03-23T17:07:56.989Z,99068.31
2023-03-23T17:09:00.417Z,99055.34
2023-03-23T17:10:02.842Z,99057.97
2023-03-23T17:11:07.623Z,99067.41
2023-03-23T17:12:10.868Z,99060.63
2023-03-23T17:13:14.796Z,99055.34
2023-03-23T17:14:18.383Z,99057.91
2023-03-23T17:15:21.158Z,99064.06
2023-03-23T17:16:24.733Z,99063.09
2023-03-23T17:17:29.483Z,99064.91
2023-03-23T17:18:33.676Z,99063.19
2023-03-23T17:19:36.234Z,99064.91
2023-03-23T17:20:39.894Z,99059.69
2023-03-23T17:21:42.647Z,99049.28
2023-03-23T17:22:46.622Z,99058.13
2023-03-23T17:23:49.189Z,99060.75
2023-03-23T17:24:52.762Z,99060.81
2023-03-23T17:25:55.858Z,99054.91
2023-03-23T17:26:59.387Z,99048.88
2023-03-23T17:28:05.803Z,99062.75
2023-03-23T17:29:09.956Z,99058.47
2023-03-23T17:30:12.904Z,99057.66
2023-03-23T17:31:16.499Z,99058.47
2023-03-23T17:32:20.901Z,99053.47
2023-03-23T17:33:26.148Z,99054.44
2023-03-23T17:34:28.716Z,99052.69
2023-03-23T17:35:32.377Z,99051.06
2023-03-23T17:36:34.967Z,99052.75
2023-03-23T17:37:39.657Z,99059.56
2023-03-23T17:38:43.398Z,99057.94
2023-03-23T17:39:47.565Z,99052.03
2023-03-23T17:40:58.692Z,99053.63
2023-03-23T17:42:01.495Z,99052.03
2023-03-23T17:43:05.333Z,99054.59
2023-03-23T17:44:08.149Z,99051.19
2023-03-23T17:45:12.206Z,99050.41
2023-03-23T17:46:15.333Z,99051.19
2023-03-23T17:47:19.019Z,99053.84
2023-03-23T17:48:23.386Z,99052.13
2023-03-23T17:49:28.506Z,99045.28
2023-03-23T17:50:32.157Z,99041.84
2023-03-23T17:51:34.662Z,99052.09
2023-03-23T17:52:38.331Z,99044.25
2023-03-23T17:53:40.810Z,99046.91
2023-03-23T17:54:44.545Z,99045.19
2023-03-23T17:55:47.788Z,99044.34
2023-03-23T17:56:50.288Z,99039.22
2023-03-23T17:57:53.950Z,99040.94
2023-03-23T17:58:56.430Z,99045.19
2023-03-23T18:00:00.229Z,99046.97
2023-03-23T18:02:06.927Z,99041.09
2023-03-23T18:03:09.505Z,99046.28
2023-03-23T18:04:13.150Z,99046.28
2023-03-23T18:05:18.396Z,99030.03
2023-03-23T18:06:21.104Z,99029.31
2023-03-23T18:07:24.584Z,99031.03
2023-03-23T18:08:28.505Z,99030.25
2023-03-23T18:09:32.185Z,99025.06
2023-03-23T18:10:36.819Z,99023.28
2023-03-23T18:11:40.813Z,99016.53
2023-03-23T18:12:43.584Z,99022.59
2023-03-23T18:13:47.137Z,99006.09
2023-03-23T18:14:49.875Z,99023.44
2023-03-23T18:15:55.120Z,99019.19
2023-03-23T18:16:57.683Z,99027.88
2023-03-23T18:18:03.732Z,99030.44
2023-03-23T18:19:06.692Z,99028.75
2023-03-23T18:20:11.258Z,99026.06
2023-03-23T18:21:16.362Z,99027.81
2023-03-23T18:22:18.981Z,99035.66
2023-03-23T18:23:22.556Z,99033.97
2023-03-23T18:24:26.071Z,99036.59
2023-03-23T18:25:28.564Z,99035.69
2023-03-23T18:26:32.298Z,99038.34
2023-03-23T18:27:35.710Z,99039.16
2023-03-23T18:28:38.867Z,99034.03
2023-03-23T18:29:42.442Z,99037.47
2023-03-23T18:30:49.366Z,99033.13
2023-03-23T18:31:53.201Z,99035.69
2023-03-23T18:32:55.961Z,99033.97
2023-03-23T18:33:59.698Z,99035.66
2023-03-23T18:35:03.898Z,99041.66
2023-03-23T18:36:07.711Z,99040.78
2023-03-23T18:37:13.062Z,99037.34
2023-03-23T18:38:15.842Z,99037.28
2023-03-23T18:39:19.416Z,99033.81
2023-03-23T18:40:21.975Z,99036.59
2023-03-23T18:41:26.136Z,99035.84
2023-03-23T18:42:30.628Z,99041.13
2023-03-23T18:43:33.219Z,99036.00
2023-03-23T18:44:36.887Z,99041.31
2023-03-23T18:45:39.511Z,99030.19
2023-03-23T18:46:43.161Z,99028.75
2023-03-23T18:47:45.879Z,99035.84
2023-03-23T18:48:49.410Z,99032.53
2023-03-23T18:49:55.347Z,99031.88
2023-03-23T18:50:59.573Z,99030.31
2023-03-23T18:52:03.334Z,99028.75
2023-03-23T18:53:09.469Z,99035.72
2023-03-23T18:54:13.554Z,99035.66
2023-03-23T18:55:17.578Z,99028.91
2023-03-23T18:56:20.995Z,99036.03
2023-03-23T18:57:24.811Z,99038.69
2023-03-23T18:58:26.985Z,99028.47
2023-03-23T18:59:34.052Z,99033.69
2023-03-23T19:00:37.524Z,99029.44
2023-03-23T19:01:41.153Z,99030.38
2023-03-23T19:02:43.829Z,99027.06
2023-03-23T19:03:47.956Z,99024.63
2023-03-23T19:04:51.135Z,99030.66
2023-03-23T19:05:59.590Z,99027.31
2023-03-23T19:07:04.552Z,99021.31
2023-03-23T19:08:12.225Z,99024.06
2023-03-23T19:09:15.614Z,99027.59
2023-03-23T19:10:22.001Z,99025.06
2023-03-23T19:11:27.440Z,99023.38
2023-03-23T19:12:29.930Z,99022.56
2023-03-23T19:13:37.540Z,99028.66
2023-03-23T19:14:41.457Z,99023.66
2023-03-23T19:15:45.403Z,99016.69
2023-03-23T19:16:49.667Z,99012.56
2023-03-23T19:17:56.278Z,99019.44
2023-03-23T19:19:01.642Z,99013.38
2023-03-23T19:20:05.284Z,99010.13
2023-03-23T19:21:13.338Z,99011.00
2023-03-23T19:22:18.685Z,99009.31
2023-03-23T19:23:23.752Z,99015.38
2023-03-23T19:24:30.425Z,99008.47
2023-03-23T19:25:33.844Z,99004.22
2023-03-23T19:26:39.207Z,98994.59
2023-03-23T19:28:13.727Z,99001.53
2023-03-23T19:30:13.470Z,98997.22
2023-03-23T19:31:17.252Z,99002.25
2023-03-23T19:32:21.200Z,98999.72
2023-03-23T19:33:24.147Z,98992.91
2023-03-23T19:34:30.772Z,98991.88
2023-03-23T19:35:33.374Z,98991.97
2023-03-23T19:36:37.743Z,98986.75
2023-03-23T19:37:40.405Z,98991.97
2023-03-23T19:38:45.594Z,98993.56
2023-03-23T19:39:48.085Z,98990.91
2023-03-23T19:40:56.050Z,98992.50
2023-03-23T19:42:04.355Z,98990.81
2023-03-23T19:43:07.333Z,98983.97
2023-03-23T19:44:11.217Z,98993.22
2023-03-23T19:45:13.781Z,98982.81
2023-03-23T19:46:17.859Z,98989.72
2023-03-23T19:47:22.318Z,98987.94
2023-03-23T19:48:26.138Z,98983.56
2023-03-23T19:49:29.486Z,98981.78
2023-03-23T19:50:33.368Z,98981.75
2023-03-23T19:51:37.090Z,98974.72
2023-03-23T19:52:42.016Z,98972.16
2023-03-23T19:53:47.659Z,98982.38
2023-03-23T19:54:50.103Z,98977.16
2023-03-23T19:55:53.759Z,98966.84
2023-03-23T19:56:59.185Z,98966.03
2023-03-23T19:58:03.116Z,98972.03
2023-03-23T19:59:08.114Z,98966.84
2023-03-23T20:00:13.538Z,98964.13
2023-03-23T20:01:18.021Z,98976.91
2023-03-23T20:02:20.630Z,98970.16
2023-03-23T20:03:26.025Z,98962.31
2023-03-23T20:04:29.922Z,98976.97
2023-03-23T20:05:34.319Z,98970.16
2023-03-23T20:06:39.011Z,98967.50
2023-03-23T20:07:44.530Z,98964.09
2023-03-23T20:08:53.037Z,98966.66
2023-03-23T20:09:55.538Z,98957.00
2023-03-23T20:11:05.442Z,98963.00
2023-03-23T20:12:08.473Z,98962.94
2023-03-23T20:13:13.205Z,98956.03
2023-03-23T20:14:17.773Z,98950.72
2023-03-23T20:15:20.740Z,98956.59
2023-03-23T20:16:25.725Z,98959.16
2023-03-23T20:17:29.874Z,98954.72
2023-03-23T20:18:34.349Z,98951.97
2023-03-23T20:19:38.684Z,98956.06
2023-03-23T20:20:42.196Z,98958.50
2023-03-23T20:21:45.651Z,98957.56
2023-03-23T20:22:51.086Z,98944.56
2023-03-23T20:23:59.527Z,98952.16
2023-03-23T20:25:02.447Z,98946.09
2023-03-23T20:26:08.658Z,98945.16
2023-03-23T20:27:11.747Z,98948.53
2023-03-23T20:28:16.660Z,98953.59
2023-03-23T20:29:19.216Z,98951.84
2023-03-23T20:30:23.051Z,98950.03
2023-03-23T20:31:27.486Z,98949.09
2023-03-23T20:32:33.286Z,98948.16
2023-03-23T20:33:36.222Z,98959.13
2023-03-23T20:34:40.060Z,98957.38
2023-03-23T20:35:42.376Z,98947.94
2023-03-23T20:36:49.225Z,98945.31
2023-03-23T20:37:52.925Z,98952.13
2023-03-23T20:38:57.716Z,98951.19
2023-03-23T20:40:01.447Z,98947.72
2023-03-23T20:41:05.872Z,98951.09
2023-03-23T20:42:09.547Z,98949.34
2023-03-23T20:43:14.063Z,98947.41
2023-03-23T20:44:19.044Z,98948.25
2023-03-23T20:45:21.741Z,98943.94
2023-03-23T20:46:26.061Z,98944.59
2023-03-23T20:47:28.864Z,98951.56
2023-03-23T20:48:35.044Z,98949.09
2023-03-23T20:49:38.833Z,98947.31
2023-03-23T20:50:42.073Z,98951.66
2023-03-23T20:51:46.812Z,98944.84
2023-03-23T20:52:49.304Z,98940.44
2023-03-23T20:53:53.436Z,98945.69
2023-03-23T20:54:58.390Z,98943.25
2023-03-23T20:56:03.583Z,98943.25
2023-03-23T20:57:07.275Z,98945.09
2023-03-23T20:58:09.737Z,98943.50
2023-03-23T20:59:13.669Z,98942.75
2023-03-23T21:00:18.220Z,98942.88
2023-03-23T21:01:21.853Z,98947.31
2023-03-23T21:02:26.517Z,98941.41
2023-03-23T21:03:31.349Z,98934.59
2023-03-23T21:04:37.393Z,98929.50
2023-03-23T21:05:41.305Z,98935.44
2023-03-23T21:06:45.642Z,98939.09
2023-03-23T21:07:52.955Z,98934.13
2023-03-23T21:08:56.543Z,98933.28
2023-03-23T21:10:01.957Z,98934.16
2023-03-23T21:11:06.016Z,98929.16
2023-03-23T21:12:10.520Z,98923.28
2023-03-23T21:13:13.425Z,98935.50
2023-03-23T21:14:17.323Z,98932.25
2023-03-23T21:15:20.592Z,98923.69
2023-03-23T21:16:25.297Z,98934.28
2023-03-23T21:17:28.940Z,98919.63
2023-03-23T21:18:32.331Z,98919.94
2023-03-23T21:19:36.526Z,98925.97
2023-03-23T21:20:41.983Z,98923.44
2023-03-23T21:21:55.399Z,98912.19
2023-03-23T21:23:03.035Z,98914.00
2023-03-23T21:24:09.442Z,98915.81
2023-03-23T21:25:14.763Z,98916.81
2023-03-23T21:26:17.919Z,98925.38
2023-03-23T21:27:21.705Z,98914.38
2023-03-23T21:28:25.855Z,98912.81
2023-03-23T21:29:29.607Z,98910.25
2023-03-23T21:30:32.111Z,98899.06
2023-03-23T21:31:37.011Z,98906.94
2023-03-23T21:32:39.602Z,98919.00
2023-03-23T21:33:43.300Z,98913.09
2023-03-23T21:34:47.701Z,98911.44
2023-03-23T21:35:50.211Z,98903.75
2023-03-23T21:36:53.907Z,98902.09
2023-03-23T21:37:58.351Z,98907.25
2023-03-23T21:39:06.324Z,98902.94
2023-03-23T21:40:14.271Z,98905.63
2023-03-23T21:41:19.399Z,98897.09
2023-03-23T21:42:30.638Z,98905.00
2023-03-23T21:43:51.855Z,98910.16
2023-03-23T21:44:54.498Z,98902.50
2023-03-23T21:46:03.084Z,98889.63
2023-03-23T21:47:06.850Z,98900.06
2023-03-23T21:48:09.859Z,98906.94
2023-03-23T21:49:16.429Z,98887.69
2023-03-23T21:50:22.306Z,98903.44
2023-03-23T21:51:28.113Z,98896.59
2023-03-23T21:52:32.640Z,98893.25
2023-03-23T21:53:37.222Z,98892.41
2023-03-23T21:54:41.474Z,98900.09
2023-03-23T21:55:48.284Z,98895.94
2023-03-23T21:56:53.405Z,98893.41
2023-03-23T21:57:56.503Z,98893.41
2023-03-23T21:59:01.409Z,98895.19
2023-03-23T22:00:06.418Z,98899.47
2023-03-23T22:01:10.890Z,98898.66
2023-03-23T22:02:17.097Z,98895.31
2023-03-23T22:03:22.912Z,98891.91
2023-03-23T22:04:28.109Z,98891.97
2023-03-23T22:05:32.341Z,98891.97
2023-03-23T22:06:36.230Z,98887.25
2023-03-23T22:07:40.660Z,98895.38
2023-03-23T22:08:46.116Z,98895.47
2023-03-23T22:09:50.925Z,98903.94
2023-03-23T22:11:01.884Z,98897.88
2023-03-23T22:12:08.680Z,98910.63
2023-03-23T22:13:12.227Z,98899.44
2023-03-23T22:14:18.245Z,98896.84
2023-03-23T22:15:28.086Z,98904.47
2023-03-23T22:16:35.728Z,98907.00
2023-03-23T22:17:38.990Z,98909.53
2023-03-23T22:18:46.606Z,98904.44
2023-03-23T22:19:50.783Z,98898.16
2023-03-23T22:20:53.817Z,98903.44
2023-03-23T22:21:57.493Z,98894.78
2023-03-23T22:23:00.317Z,98899.00
2023-03-23T22:24:04.016Z,98895.47
2023-03-23T22:25:06.643Z,98897.19
2023-03-23T22:26:11.526Z,98899.75
2023-03-23T22:27:19.051Z,98889.28
2023-03-23T22:28:26.754Z,98898.69
2023-03-23T22:29:30.645Z,98899.41
2023-03-23T22:30:33.403Z,98898.56
2023-03-23T22:31:39.997Z,98901.06
2023-03-23T22:32:42.930Z,98896.69
2023-03-23T22:33:47.784Z,98884.56
2023-03-23T22:34:52.170Z,98894.72
2023-03-23T22:35:56.002Z,98895.47
2023-03-23T22:36:58.674Z,98891.91
2023-03-23T22:38:03.415Z,98889.28
2023-03-23T22:39:06.768Z,98897.78
2023-03-23T22:40:11.680Z,98885.72
2023-03-23T22:41:18.375Z,98878.09
2023-03-23T22:42:23.493Z,98896.06
2023-03-23T22:43:27.207Z,98888.28
2023-03-23T22:44:31.100Z,98882.25
2023-03-23T22:45:33.949Z,98881.59
2023-03-23T22:46:39.873Z,98873.94
2023-03-23T22:47:43.806Z,98884.28
2023-03-23T22:48:46.589Z,98875.75
2023-03-23T22:49:53.658Z,98881.84
2023-03-23T22:50:59.041Z,98884.59
2023-03-23T22:52:04.149Z,98871.81
2023-03-23T22:53:07.058Z,98876.16
2023-03-23T22:54:12.199Z,98874.50
2023-03-23T22:55:32.186Z,98883.94
2023-03-23T22:56:53.784Z,98873.75
2023-03-23T22:58:05.474Z,98875.53
2023-03-23T22:59:09.627Z,98869.50
2023-03-23T23:00:15.137Z,98868.63
2023-03-23T23:01:21.368Z,98880.66
2023-03-23T23:02:26.791Z,98872.94
2023-03-23T23:03:31.677Z,98876.28
2023-03-23T23:04:34.539Z,98872.78
2023-03-23T23:05:43.070Z,98877.03
2023-03-23T23:06:45.881Z,98879.50
2023-03-23T23:07:49.536Z,98871.78
2023-03-23T23:08:52.971Z,98861.13
2023-03-23T23:09:59.416Z,98875.75
2023-03-23T23:11:20.781Z,98864.56
2023-03-23T23:12:35.482Z,98862.63
2023-03-23T23:13:40.109Z,98858.50
2023-03-23T23:14:44.937Z,98881.78
2023-03-23T23:15:54.893Z,98867.13
2023-03-23T23:16:58.579Z,98883.28
2023-03-23T23:18:03.316Z,98877.22
2023-03-23T23:19:10.071Z,98877.22
2023-03-23T23:20:17.178Z,98874.56
2023-03-23T23:21:25.475Z,98875.44
2023-03-23T23:22:31.598Z,98881.50
2023-03-23T23:23:38.378Z,98865.91
2023-03-23T23:24:41.630Z,98874.66
2023-03-23T23:25:46.073Z,98880.66
2023-03-23T23:27:00.127Z,98863.47
2023-03-23T23:28:05.265Z,98872.13
2023-03-23T23:29:09.714Z,98867.88
2023-03-23T23:30:14.352Z,98866.97
2023-03-23T23:31:22.801Z,98867.84
2023-03-23T23:32:27.299Z,98860.91
2023-03-23T23:33:32.642Z,98865.19
2023-03-23T23:34:36.306Z,98868.50
2023-03-23T23:35:43.266Z,98861.69
2023-03-23T23:36:45.910Z,98859.13
2023-03-23T23:37:50.453Z,98860.91
2023-03-23T23:38:53.012Z,98850.56
2023-03-23T23:39:57.683Z,98856.63
2023-03-23T23:41:00.325Z,98833.94
2023-03-23T23:42:05.624Z,98844.50
2023-03-23T23:43:08.632Z,98844.53
2023-03-23T23:44:14.357Z,98846.31
2023-03-23T23:45:17.485Z,98852.31
2023-03-23T23:46:21.746Z,98854.00
2023-03-23T23:47:24.519Z,98846.34
2023-03-23T23:48:28.589Z,98840.25
2023-03-23T23:49:33.153Z,98840.16
2023-03-23T23:50:37.498Z,98848.00
2023-03-23T23:51:41.503Z,98847.19
2023-03-23T23:52:45.998Z,98846.19
2023-03-23T23:53:53.703Z,98845.38
2023-03-23T23:54:57.511Z,98847.06
2023-03-23T23:56:03.035Z,98846.13
2023-03-23T23:57:10.214Z,98849.50
2023-03-23T23:58:17.856Z,98855.56
2023-03-23T23:59:30.858Z,98852.00
